Time;durP1;ratioP1;P1;durP2;ratioP2;P2;SDS_P1;SDS_P2;PMS_P1;PMS_P2;Temp;Humidity;BMP_temperature;BMP_pressure;BME280_temperature;BME280_humidity;BME280_pressure;Samples;Min_cycle;Max_cycle;Signal;HPM_P1;HPM_P2
2022/05/15 00:02:03;;;;;;;9.75;3.10;;;;;;;;;;5042994;28;20514;-80
2022/05/15 00:04:29;;;;;;;7.85;3.08;;;;;;;;;;5041371;28;20025;-80
2022/05/15 00:06:55;;;;;;;5.45;3.13;;;;;;;;;;5036808;28;20064;-79
2022/05/15 00:09:21;;;;;;;7.70;3.00;;;;;;;;;;5041447;28;20060;-80
2022/05/15 00:11:48;;;;;;;6.75;3.03;;;;;;;;;;5035012;28;20559;-79
2022/05/15 00:14:14;;;;;;;8.65;2.83;;;;;;;;;;5036729;28;20026;-79
2022/05/15 00:16:40;;;;;;;9.73;3.05;;;;;;;;;;5034743;28;20521;-79
2022/05/15 00:19:06;;;;;;;9.30;3.10;;;;;;;;;;5042096;28;20032;-79
2022/05/15 00:21:33;;;;;;;7.82;3.28;;;;;;;;;;5046956;28;20038;-80
2022/05/15 00:23:59;;;;;;;6.80;3.20;;;;;;;;;;5045865;28;20036;-81
2022/05/15 00:26:26;;;;;;;8.20;2.88;;;;;;;;;;5037474;28;20066;-79
2022/05/15 00:28:52;;;;;;;8.90;3.47;;;;;;;;;;5040116;28;20021;-79
2022/05/15 00:31:20;;;;;;;11.00;3.40;;;;;;;;;;5043424;28;20036;-80
2022/05/15 00:33:47;;;;;;;14.80;3.20;;;;;;;;;;5041445;28;20150;-81
2022/05/15 00:36:13;;;;;;;6.53;3.33;;;;;;;;;;5044564;28;20057;-81
2022/05/15 00:38:39;;;;;;;13.27;3.10;;;;;;;;;;5039298;28;20402;-82
2022/05/15 00:41:08;;;;;;;9.20;3.20;;;;;;;;;;5032631;28;20032;-82
2022/05/15 00:43:40;;;;;;;9.68;3.20;;;;;;;;;;5035112;28;20033;-83
2022/05/15 00:46:08;;;;;;;7.20;2.95;;;;;;;;;;5047410;28;20483;-82
2022/05/15 00:48:34;;;;;;;7.05;3.10;;;;;;;;;;5039406;28;20059;-79
2022/05/15 00:51:01;;;;;;;5.18;3.10;;;;;;;;;;5034098;28;20021;-83
2022/05/15 00:53:27;;;;;;;8.23;3.30;;;;;;;;;;5041976;28;20132;-83
2022/05/15 00:55:54;;;;;;;5.18;2.72;;;;;;;;;;5039880;28;20036;-82
2022/05/15 00:58:23;;;;;;;6.70;2.90;;;;;;;;;;5037151;28;20037;-80
2022/05/15 01:00:49;;;;;;;5.07;2.83;;;;;;;;;;5044609;28;20033;-82
2022/05/15 01:03:17;;;;;;;6.63;3.08;;;;;;;;;;5038453;28;20029;-80
2022/05/15 01:05:51;;;;;;;9.13;3.50;;;;;;;;;;5042560;28;20049;-84
2022/05/15 01:08:17;;;;;;;9.30;3.40;;;;;;;;;;5041515;28;20129;-82
2022/05/15 01:10:46;;;;;;;5.53;3.03;;;;;;;;;;5036486;28;20022;-81
2022/05/15 01:13:12;;;;;;;8.77;2.83;;;;;;;;;;5042467;28;20387;-83
2022/05/15 01:15:42;;;;;;;4.35;2.88;;;;;;;;;;5035527;28;20025;-84
2022/05/15 01:18:08;;;;;;;5.22;2.95;;;;;;;;;;5034888;28;20454;-82
2022/05/15 01:20:35;;;;;;;5.90;3.00;;;;;;;;;;5045058;28;20021;-81
2022/05/15 01:23:01;;;;;;;7.75;3.17;;;;;;;;;;5037656;28;20475;-82
2022/05/15 01:25:32;;;;;;;13.00;3.30;;;;;;;;;;5039764;28;20029;-81
2022/05/15 01:28:12;;;;;;;8.73;3.03;;;;;;;;;;5042512;28;20113;-81
2022/05/15 01:30:39;;;;;;;7.65;3.05;;;;;;;;;;5041630;28;20032;-84
2022/05/15 01:33:05;;;;;;;9.30;3.00;;;;;;;;;;5038760;28;20049;-81
2022/05/15 01:35:34;;;;;;;7.65;3.00;;;;;;;;;;5039586;28;20032;-81
2022/05/15 01:38:00;;;;;;;7.90;2.90;;;;;;;;;;5031392;28;20123;-83
2022/05/15 01:40:26;;;;;;;24.95;3.95;;;;;;;;;;5039834;28;20017;-83
2022/05/15 01:42:52;;;;;;;110.97;7.85;;;;;;;;;;5033582;28;20751;-82
2022/05/15 01:45:18;;;;;;;35.72;5.07;;;;;;;;;;5033090;28;20095;-81
2022/05/15 01:47:44;;;;;;;19.30;3.75;;;;;;;;;;5035772;28;20060;-82
2022/05/15 01:50:12;;;;;;;8.48;3.17;;;;;;;;;;5041824;28;20026;-81
2022/05/15 01:52:38;;;;;;;7.15;2.95;;;;;;;;;;5034745;28;20026;-83
2022/05/15 01:55:05;;;;;;;8.15;2.85;;;;;;;;;;5039250;28;20430;-81
2022/05/15 01:57:31;;;;;;;5.00;2.97;;;;;;;;;;5038346;28;20033;-81
2022/05/15 01:59:57;;;;;;;5.45;3.15;;;;;;;;;;5033230;28;20032;-83
2022/05/15 02:02:23;;;;;;;5.18;3.05;;;;;;;;;;5038764;28;20040;-82
2022/05/15 02:04:49;;;;;;;6.05;2.67;;;;;;;;;;5042865;28;20032;-81
2022/05/15 02:07:18;;;;;;;12.95;3.58;;;;;;;;;;5031417;28;20052;-84
2022/05/15 02:09:44;;;;;;;9.25;3.30;;;;;;;;;;5040313;28;20104;-81
2022/05/15 02:12:11;;;;;;;7.82;3.00;;;;;;;;;;5032725;28;20048;-82
2022/05/15 02:14:37;;;;;;;5.57;3.10;;;;;;;;;;5041057;28;20021;-84
2022/05/15 02:17:03;;;;;;;7.47;3.50;;;;;;;;;;5044205;28;20430;-83
2022/05/15 02:19:29;;;;;;;6.97;3.25;;;;;;;;;;5037899;28;20040;-82
2022/05/15 02:21:55;;;;;;;8.02;3.25;;;;;;;;;;5032853;28;20109;-83
2022/05/15 02:24:21;;;;;;;9.15;3.30;;;;;;;;;;5032574;28;20025;-82
2022/05/15 02:26:47;;;;;;;8.55;3.17;;;;;;;;;;5041354;28;20021;-81
2022/05/15 02:29:13;;;;;;;6.28;3.28;;;;;;;;;;5040059;28;20025;-82
2022/05/15 02:31:39;;;;;;;7.82;3.05;;;;;;;;;;5039471;28;20509;-81
2022/05/15 02:34:05;;;;;;;8.20;3.20;;;;;;;;;;5033240;28;20116;-81
2022/05/15 02:36:31;;;;;;;8.82;3.42;;;;;;;;;;5033031;28;20029;-83
2022/05/15 02:38:57;;;;;;;9.55;3.40;;;;;;;;;;5031761;28;20018;-82
2022/05/15 02:41:23;;;;;;;9.73;3.72;;;;;;;;;;5038863;28;20033;-82
2022/05/15 02:43:50;;;;;;;8.88;3.30;;;;;;;;;;5035136;28;20080;-81
2022/05/15 02:46:18;;;;;;;12.63;4.20;;;;;;;;;;5041347;28;20049;-84
2022/05/15 02:51:29;;;;;;;8.75;3.53;;;;;;;;;;5045873;28;20113;-84
2022/05/15 02:53:55;;;;;;;8.10;3.08;;;;;;;;;;5037045;28;20068;-80
2022/05/15 02:56:25;;;;;;;8.35;3.20;;;;;;;;;;5036104;28;20083;-81
2022/05/15 02:58:52;;;;;;;8.55;3.35;;;;;;;;;;5040627;28;20035;-83
2022/05/15 03:01:18;;;;;;;9.02;3.30;;;;;;;;;;5039336;28;20537;-83
2022/05/15 03:03:47;;;;;;;7.80;3.47;;;;;;;;;;5041341;28;20527;-81
2022/05/15 03:06:14;;;;;;;8.48;3.50;;;;;;;;;;5041507;28;20052;-82
2022/05/15 03:08:45;;;;;;;8.27;3.25;;;;;;;;;;5038682;28;20030;-82
2022/05/15 03:11:11;;;;;;;6.50;2.78;;;;;;;;;;5036197;28;20029;-80
2022/05/15 03:13:37;;;;;;;11.68;3.65;;;;;;;;;;5040702;28;20060;-81
2022/05/15 03:16:04;;;;;;;12.63;3.42;;;;;;;;;;5046890;28;20037;-82
2022/05/15 03:18:32;;;;;;;7.47;3.22;;;;;;;;;;5037664;28;20025;-83
2022/05/15 03:20:59;;;;;;;7.50;3.20;;;;;;;;;;5035189;28;20009;-83
2022/05/15 03:23:25;;;;;;;6.65;3.40;;;;;;;;;;5035353;28;20034;-82
2022/05/15 03:25:52;;;;;;;11.27;3.45;;;;;;;;;;5034435;28;20021;-84
2022/05/15 03:28:18;;;;;;;9.05;3.20;;;;;;;;;;5038099;28;20468;-84
2022/05/15 03:30:44;;;;;;;7.38;3.15;;;;;;;;;;5043038;28;20095;-83
2022/05/15 03:33:12;;;;;;;8.50;3.00;;;;;;;;;;5035241;28;20044;-84
2022/05/15 03:35:38;;;;;;;6.80;3.08;;;;;;;;;;5039975;28;20075;-82
2022/05/15 03:38:06;;;;;;;5.50;2.92;;;;;;;;;;5041893;28;20040;-83
2022/05/15 03:40:32;;;;;;;6.28;3.35;;;;;;;;;;5034989;28;20026;-84
2022/05/15 03:42:58;;;;;;;8.57;3.30;;;;;;;;;;5041435;28;20052;-80
2022/05/15 03:45:24;;;;;;;8.32;3.05;;;;;;;;;;5040065;28;20151;-83
2022/05/15 03:47:52;;;;;;;8.38;3.38;;;;;;;;;;5036463;28;20034;-83
2022/05/15 03:50:19;;;;;;;8.98;3.63;;;;;;;;;;5041508;28;20033;-81
2022/05/15 03:52:45;;;;;;;8.48;3.10;;;;;;;;;;5038772;28;20108;-81
2022/05/15 03:55:12;;;;;;;10.18;4.05;;;;;;;;;;5042429;28;20025;-86
2022/05/15 03:57:41;;;;;;;9.80;3.60;;;;;;;;;;5041374;28;20037;-85
2022/05/15 04:00:08;;;;;;;9.05;3.65;;;;;;;;;;5041944;28;20025;-83
2022/05/15 04:02:34;;;;;;;9.07;3.72;;;;;;;;;;5037859;28;20026;-82
2022/05/15 04:05:00;;;;;;;11.63;4.78;;;;;;;;;;5041042;28;20017;-77
2022/05/15 04:07:26;;;;;;;11.40;4.18;;;;;;;;;;5038971;28;20128;-82
2022/05/15 04:09:52;;;;;;;8.68;4.43;;;;;;;;;;5034387;28;20029;-76
2022/05/15 04:12:18;;;;;;;9.88;3.85;;;;;;;;;;5040440;28;20053;-75
2022/05/15 04:14:44;;;;;;;6.90;3.80;;;;;;;;;;5047496;28;20027;-80
2022/05/15 04:17:10;;;;;;;7.50;4.05;;;;;;;;;;5046345;28;20405;-75
2022/05/15 04:19:38;;;;;;;12.60;3.83;;;;;;;;;;5049706;28;20025;-75
2022/05/15 04:22:05;;;;;;;13.27;3.92;;;;;;;;;;5041349;28;20036;-78
2022/05/15 04:24:34;;;;;;;12.95;4.22;;;;;;;;;;5038287;28;20482;-75
2022/05/15 04:27:00;;;;;;;10.02;5.05;;;;;;;;;;5042169;28;20029;-74
2022/05/15 04:29:27;;;;;;;10.13;3.85;;;;;;;;;;5046715;28;20059;-83
2022/05/15 04:31:55;;;;;;;8.32;4.30;;;;;;;;;;5037234;28;20029;-81
2022/05/15 04:34:28;;;;;;;9.30;3.95;;;;;;;;;;5049931;28;20025;-76
2022/05/15 04:36:54;;;;;;;12.10;4.97;;;;;;;;;;5046375;28;20029;-78
2022/05/15 04:39:20;;;;;;;12.00;4.15;;;;;;;;;;5045865;28;20118;-78
2022/05/15 04:41:55;;;;;;;10.88;4.50;;;;;;;;;;5571855;22;20071;-78
2022/05/15 04:44:21;;;;;;;9.60;4.20;;;;;;;;;;5034328;28;20069;-79
2022/05/15 04:46:47;;;;;;;17.95;10.00;;;;;;;;;;5044700;28;20021;-76
2022/05/15 04:49:13;;;;;;;6.90;3.80;;;;;;;;;;5039599;28;20148;-76
2022/05/15 04:51:39;;;;;;;17.67;5.15;;;;;;;;;;5030990;28;20021;-76
2022/05/15 04:54:08;;;;;;;14.13;6.20;;;;;;;;;;5030208;28;20022;-75
2022/05/15 04:56:34;;;;;;;9.38;4.85;;;;;;;;;;5029370;28;20056;-74
2022/05/15 04:59:00;;;;;;;14.63;4.40;;;;;;;;;;5032894;28;20054;-79
2022/05/15 05:01:27;;;;;;;11.57;4.30;;;;;;;;;;5029905;28;20117;-82
2022/05/15 05:03:56;;;;;;;11.05;4.20;;;;;;;;;;5030474;28;20079;-72
2022/05/15 05:06:22;;;;;;;8.43;3.90;;;;;;;;;;5028794;28;20108;-80
2022/05/15 05:08:49;;;;;;;10.93;4.18;;;;;;;;;;5031819;28;20526;-77
2022/05/15 05:11:18;;;;;;;11.43;4.07;;;;;;;;;;5041120;28;20036;-76
2022/05/15 05:13:47;;;;;;;9.75;4.60;;;;;;;;;;5029341;28;20502;-81
2022/05/15 05:16:14;;;;;;;9.63;4.63;;;;;;;;;;5028524;28;20038;-75
2022/05/15 05:18:40;;;;;;;9.32;4.55;;;;;;;;;;5027646;28;20490;-74
2022/05/15 05:21:06;;;;;;;13.52;4.03;;;;;;;;;;5028266;28;20878;-72
2022/05/15 05:23:33;;;;;;;7.72;3.60;;;;;;;;;;5031433;28;20025;-77
2022/05/15 05:25:59;;;;;;;9.35;3.58;;;;;;;;;;5027844;28;20060;-77
2022/05/15 05:28:25;;;;;;;16.23;5.55;;;;;;;;;;5031394;28;20068;-79
2022/05/15 05:30:51;;;;;;;11.98;5.82;;;;;;;;;;5026757;28;20064;-78
2022/05/15 05:33:17;;;;;;;14.13;8.75;;;;;;;;;;5029916;28;20025;-78
2022/05/15 05:35:44;;;;;;;9.52;4.38;;;;;;;;;;5026888;28;20021;-79
2022/05/15 05:38:10;;;;;;;10.07;4.38;;;;;;;;;;5031721;28;20045;-77
2022/05/15 05:40:36;;;;;;;7.38;4.72;;;;;;;;;;5026145;28;20105;-86
2022/05/15 05:43:03;;;;;;;19.45;4.68;;;;;;;;;;5021329;28;20064;-80
2022/05/15 05:45:29;;;;;;;9.20;4.07;;;;;;;;;;5013278;28;20033;-74
2022/05/15 05:47:55;;;;;;;10.07;4.30;;;;;;;;;;5020178;28;20025;-74
2022/05/15 05:50:23;;;;;;;9.32;3.83;;;;;;;;;;5016527;28;20026;-75
2022/05/15 05:52:49;;;;;;;16.15;5.60;;;;;;;;;;5014371;28;20065;-75
2022/05/15 05:55:16;;;;;;;24.58;11.13;;;;;;;;;;5018177;28;20022;-83
2022/05/15 05:57:43;;;;;;;12.70;8.15;;;;;;;;;;5027647;28;20042;-73
2022/05/15 06:00:10;;;;;;;9.80;3.75;;;;;;;;;;5022562;28;20032;-76
2022/05/15 06:02:36;;;;;;;15.43;10.00;;;;;;;;;;5024483;28;20021;-77
2022/05/15 06:05:03;;;;;;;10.25;3.38;;;;;;;;;;5024490;28;20095;-84
2022/05/15 06:07:29;;;;;;;9.55;3.30;;;;;;;;;;5022516;28;20124;-74
2022/05/15 06:09:55;;;;;;;12.65;3.80;;;;;;;;;;5021401;28;20024;-74
2022/05/15 06:12:23;;;;;;;9.02;4.10;;;;;;;;;;5021633;28;20175;-74
2022/05/15 06:14:49;;;;;;;8.82;3.15;;;;;;;;;;5016639;28;20022;-77
2022/05/15 06:17:15;;;;;;;9.52;3.25;;;;;;;;;;5022790;28;20639;-81
2022/05/15 06:19:41;;;;;;;9.30;3.47;;;;;;;;;;5020724;28;20030;-81
2022/05/15 06:22:08;;;;;;;8.02;3.45;;;;;;;;;;5027691;28;20025;-75
2022/05/15 06:24:34;;;;;;;7.00;3.35;;;;;;;;;;5027503;28;20032;-80
2022/05/15 06:27:02;;;;;;;7.90;3.22;;;;;;;;;;5031056;28;20030;-81
2022/05/15 06:29:28;;;;;;;8.02;3.10;;;;;;;;;;5029187;28;20036;-73
2022/05/15 06:31:55;;;;;;;7.20;3.25;;;;;;;;;;5029113;28;20038;-79
2022/05/15 06:34:21;;;;;;;8.52;3.75;;;;;;;;;;5022584;28;20037;-73
2022/05/15 06:36:47;;;;;;;5.70;3.22;;;;;;;;;;5022127;28;20029;-73
2022/05/15 06:39:14;;;;;;;8.02;3.95;;;;;;;;;;5022110;28;20040;-75
2022/05/15 06:41:40;;;;;;;7.82;3.47;;;;;;;;;;5028405;28;20374;-75
2022/05/15 06:44:06;;;;;;;12.88;3.55;;;;;;;;;;5020938;28;20076;-73
2022/05/15 06:46:33;;;;;;;13.15;3.33;;;;;;;;;;5022366;28;20161;-74
2022/05/15 06:48:59;;;;;;;9.50;3.17;;;;;;;;;;5022153;28;20102;-75
2022/05/15 06:51:25;;;;;;;10.13;3.55;;;;;;;;;;5024397;28;20044;-74
2022/05/15 06:53:51;;;;;;;9.63;4.22;;;;;;;;;;5020319;28;20064;-75
2022/05/15 06:59:03;;;;;;;18.48;4.20;;;;;;;;;;5026266;28;20036;-73
2022/05/15 07:01:30;;;;;;;8.13;3.35;;;;;;;;;;5030238;28;20025;-75
2022/05/15 07:03:56;;;;;;;5.95;3.20;;;;;;;;;;5019734;28;20057;-76
2022/05/15 07:06:22;;;;;;;8.13;3.30;;;;;;;;;;5016981;28;20084;-74
2022/05/15 07:08:48;;;;;;;6.82;3.55;;;;;;;;;;5017881;28;20030;-75
2022/05/15 07:11:14;;;;;;;6.20;3.30;;;;;;;;;;5021642;28;20429;-75
2022/05/15 07:13:40;;;;;;;7.80;3.63;;;;;;;;;;5018516;28;20029;-75
2022/05/15 07:16:07;;;;;;;6.28;3.33;;;;;;;;;;5017635;28;20029;-80
2022/05/15 07:18:36;;;;;;;5.82;3.15;;;;;;;;;;5024001;28;20369;-76
2022/05/15 07:21:02;;;;;;;8.30;3.28;;;;;;;;;;5027457;28;20451;-77
2022/05/15 07:23:28;;;;;;;6.55;3.20;;;;;;;;;;5015195;28;20029;-76
2022/05/15 07:25:55;;;;;;;7.03;3.28;;;;;;;;;;5020690;28;20096;-77
2022/05/15 07:28:21;;;;;;;11.93;3.40;;;;;;;;;;5016448;28;20383;-74
2022/05/15 07:30:48;;;;;;;6.18;3.00;;;;;;;;;;5018562;28;21872;-73
2022/05/15 07:33:14;;;;;;;5.15;3.38;;;;;;;;;;5016213;28;20109;-74
2022/05/15 07:35:40;;;;;;;5.75;3.05;;;;;;;;;;5017727;28;20072;-74
2022/05/15 07:38:06;;;;;;;7.13;3.28;;;;;;;;;;5019199;28;20052;-73
2022/05/15 07:40:32;;;;;;;9.13;3.00;;;;;;;;;;5018845;28;20032;-78
2022/05/15 07:42:58;;;;;;;7.03;3.13;;;;;;;;;;5023152;28;20050;-77
2022/05/15 07:45:24;;;;;;;8.70;3.80;;;;;;;;;;5016800;28;20171;-77
2022/05/15 07:47:50;;;;;;;7.90;3.20;;;;;;;;;;5033347;28;20049;-77
2022/05/15 07:50:17;;;;;;;6.63;3.00;;;;;;;;;;5020170;28;20034;-75
2022/05/15 07:52:43;;;;;;;9.38;3.00;;;;;;;;;;5030126;28;20527;-74
2022/05/15 07:55:09;;;;;;;8.35;3.00;;;;;;;;;;5018544;28;20483;-75
2022/05/15 07:57:35;;;;;;;7.32;3.10;;;;;;;;;;5014679;28;20112;-78
2022/05/15 08:00:03;;;;;;;6.75;3.47;;;;;;;;;;5018287;28;20053;-78
2022/05/15 08:02:29;;;;;;;10.68;3.03;;;;;;;;;;5015640;28;20041;-75
2022/05/15 08:10:24;;;;;;;10.20;3.20;;;;;;;;;;5021368;28;20035;-84
2022/05/15 08:12:50;;;;;;;5.72;2.88;;;;;;;;;;5018580;28;20052;-74
2022/05/15 08:15:17;;;;;;;6.95;3.20;;;;;;;;;;5015652;28;20018;-75
2022/05/15 08:17:43;;;;;;;9.73;5.47;;;;;;;;;;5023196;28;20037;-77
2022/05/15 08:25:40;;;;;;;7.35;2.90;;;;;;;;;;5027574;28;20035;-80
2022/05/15 08:28:06;;;;;;;10.27;3.30;;;;;;;;;;5021379;28;20017;-84
2022/05/15 08:30:33;;;;;;;7.88;3.00;;;;;;;;;;5025793;28;20479;-83
2022/05/15 08:32:59;;;;;;;9.48;2.78;;;;;;;;;;5031795;28;20038;-81
2022/05/15 08:35:25;;;;;;;6.13;2.95;;;;;;;;;;5018267;28;20434;-81
2022/05/15 08:37:51;;;;;;;6.10;2.83;;;;;;;;;;5017056;28;20030;-81
2022/05/15 08:40:22;;;;;;;8.88;2.92;;;;;;;;;;5022094;28;20030;-81
2022/05/15 08:42:55;;;;;;;9.10;2.92;;;;;;;;;;5019146;28;20128;-87
2022/05/15 08:45:23;;;;;;;14.32;3.50;;;;;;;;;;5020931;28;20026;-82
2022/05/15 08:47:53;;;;;;;10.52;3.60;;;;;;;;;;5022686;28;20036;-85
2022/05/15 08:50:21;;;;;;;34.28;7.22;;;;;;;;;;5013371;28;20506;-84
2022/05/15 08:53:06;;;;;;;11.32;3.60;;;;;;;;;;5018447;28;20137;-82
2022/05/15 08:55:38;;;;;;;4.85;3.00;;;;;;;;;;5015772;28;20030;-85
2022/05/15 08:58:06;;;;;;;8.70;2.95;;;;;;;;;;5013896;28;20040;-83
2022/05/15 09:00:42;;;;;;;10.43;3.60;;;;;;;;;;5021584;28;20418;-81
2022/05/15 09:03:21;;;;;;;27.80;5.25;;;;;;;;;;5022860;28;20048;-83
2022/05/15 09:05:54;;;;;;;10.43;3.10;;;;;;;;;;5022532;28;20029;-84
2022/05/15 09:08:23;;;;;;;7.20;3.45;;;;;;;;;;5018403;28;20050;-84
2022/05/15 09:10:54;;;;;;;10.52;3.60;;;;;;;;;;5018042;28;20100;-83
2022/05/15 09:13:33;;;;;;;10.52;3.42;;;;;;;;;;5017962;28;20030;-83
2022/05/15 09:16:00;;;;;;;9.70;3.17;;;;;;;;;;5019229;28;20030;-85
2022/05/15 09:18:27;;;;;;;17.40;3.78;;;;;;;;;;5012731;28;20099;-83
2022/05/15 09:20:57;;;;;;;8.10;3.80;;;;;;;;;;5023310;28;20398;-86
2022/05/15 09:23:36;;;;;;;13.60;3.30;;;;;;;;;;5016329;28;20049;-89
2022/05/15 09:26:08;;;;;;;13.25;3.75;;;;;;;;;;5026886;28;20066;-87
2022/05/15 09:28:42;;;;;;;8.18;3.25;;;;;;;;;;5016648;28;20088;-90
2022/05/15 09:31:22;;;;;;;13.00;6.22;;;;;;;;;;5018492;28;20462;-90
2022/05/15 09:33:53;;;;;;;15.70;3.95;;;;;;;;;;5018062;28;20025;-86
2022/05/15 09:36:21;;;;;;;10.43;5.13;;;;;;;;;;5014063;28;20034;-89
2022/05/15 09:38:49;;;;;;;8.02;3.10;;;;;;;;;;5020374;28;20100;-88
2022/05/15 09:43:59;;;;;;;17.85;4.78;;;;;;;;;;5022707;28;20057;-86
2022/05/15 09:46:27;;;;;;;9.00;5.63;;;;;;;;;;5028166;28;20410;-90
2022/05/15 09:48:55;;;;;;;12.20;4.22;;;;;;;;;;5013366;28;20026;-90
2022/05/15 09:51:27;;;;;;;10.38;4.57;;;;;;;;;;5018944;28;20462;-86
2022/05/15 09:53:54;;;;;;;6.18;3.97;;;;;;;;;;5018275;28;20390;-88
2022/05/15 09:56:21;;;;;;;8.13;3.83;;;;;;;;;;5014801;28;20033;-87
2022/05/15 09:58:53;;;;;;;7.78;4.40;;;;;;;;;;5012996;28;20025;-90
2022/05/15 10:01:28;;;;;;;10.65;3.80;;;;;;;;;;5019716;28;20033;-87
2022/05/15 10:03:57;;;;;;;19.58;3.63;;;;;;;;;;5020091;28;20107;-87
2022/05/15 10:06:24;;;;;;;21.85;3.63;;;;;;;;;;5015360;28;20022;-89
2022/05/15 10:09:05;;;;;;;10.07;3.22;;;;;;;;;;5013437;28;20026;-89
2022/05/15 10:11:33;;;;;;;14.50;3.17;;;;;;;;;;5011972;28;20509;-90
2022/05/15 10:14:00;;;;;;;12.60;3.47;;;;;;;;;;5013109;28;20040;-89
2022/05/15 10:16:28;;;;;;;14.60;2.67;;;;;;;;;;5012983;28;20058;-85
2022/05/15 10:18:54;;;;;;;15.18;3.35;;;;;;;;;;5015405;28;20537;-86
2022/05/15 10:21:22;;;;;;;6.70;2.58;;;;;;;;;;5012772;28;20494;-87
2022/05/15 10:23:55;;;;;;;12.77;3.83;;;;;;;;;;5018855;28;20044;-85
2022/05/15 10:26:28;;;;;;;25.75;3.00;;;;;;;;;;5011998;28;20026;-86
2022/05/15 10:28:59;;;;;;;20.13;3.30;;;;;;;;;;5012939;28;20372;-86
2022/05/15 10:31:35;;;;;;;13.90;3.10;;;;;;;;;;5016828;28;20097;-89
2022/05/15 10:34:03;;;;;;;8.35;2.75;;;;;;;;;;5014846;28;20050;-86
2022/05/15 10:36:39;;;;;;;25.27;3.58;;;;;;;;;;5012802;28;20037;-85
2022/05/15 10:39:17;;;;;;;52.22;5.35;;;;;;;;;;5018059;28;20025;-82
2022/05/15 10:41:43;;;;;;;17.92;3.15;;;;;;;;;;5022885;28;20021;-85
2022/05/15 10:44:10;;;;;;;21.02;4.03;;;;;;;;;;5013756;28;20188;-85
2022/05/15 10:46:38;;;;;;;13.30;2.88;;;;;;;;;;5022317;28;20028;-85
2022/05/15 10:49:17;;;;;;;10.35;2.88;;;;;;;;;;5021724;28;20029;-82
2022/05/15 10:52:01;;;;;;;6.80;2.33;;;;;;;;;;5020130;28;20071;-88
2022/05/15 10:57:40;;;;;;;4.57;2.38;;;;;;;;;;5012488;28;20100;-83
2022/05/15 11:00:35;;;;;;;7.53;2.65;;;;;;;;;;5016423;28;20045;-85
2022/05/15 11:03:01;;;;;;;8.73;2.88;;;;;;;;;;4977996;28;20114;-86
2022/05/15 11:05:27;;;;;;;9.18;2.50;;;;;;;;;;4980903;28;20034;-89
2022/05/15 11:08:04;;;;;;;19.98;3.30;;;;;;;;;;4979804;28;20038;-85
2022/05/15 11:10:58;;;;;;;6.95;2.40;;;;;;;;;;4985617;28;20053;-90
2022/05/15 11:13:24;;;;;;;6.65;2.22;;;;;;;;;;4984804;28;20926;-83
2022/05/15 11:15:58;;;;;;;7.47;2.42;;;;;;;;;;4976384;28;20102;-80
2022/05/15 11:18:43;;;;;;;4.82;2.67;;;;;;;;;;4966850;28;20038;-89
2022/05/15 11:21:12;;;;;;;7.95;2.42;;;;;;;;;;4981580;28;20053;-88
2022/05/15 11:23:43;;;;;;;10.20;2.90;;;;;;;;;;4982059;28;20092;-87
2022/05/15 11:26:15;;;;;;;11.65;3.00;;;;;;;;;;4985285;28;20039;-85
2022/05/15 11:28:43;;;;;;;8.00;2.77;;;;;;;;;;4980733;28;20558;-83
2022/05/15 11:31:11;;;;;;;5.32;2.90;;;;;;;;;;4982551;28;20077;-85
2022/05/15 11:33:51;;;;;;;7.35;2.65;;;;;;;;;;4984082;28;20038;-83
2022/05/15 11:36:23;;;;;;;8.73;3.40;;;;;;;;;;4984581;28;20038;-87
2022/05/15 11:38:59;;;;;;;7.25;2.83;;;;;;;;;;4993784;28;20073;-83
2022/05/15 11:41:34;;;;;;;9.13;2.53;;;;;;;;;;5015293;28;20029;-89
2022/05/15 11:44:03;;;;;;;14.40;3.72;;;;;;;;;;5014503;28;20057;-84
2022/05/15 11:46:47;;;;;;;4.85;2.40;;;;;;;;;;5016176;28;20025;-87
2022/05/15 11:49:21;;;;;;;9.85;2.70;;;;;;;;;;5014545;28;20037;-86
2022/05/15 11:51:58;;;;;;;8.20;2.65;;;;;;;;;;5016924;28;20030;-87
2022/05/15 11:54:29;;;;;;;8.45;3.40;;;;;;;;;;5016805;28;20475;-90
2022/05/15 11:56:59;;;;;;;8.48;2.30;;;;;;;;;;5020808;28;20033;-89
2022/05/15 11:59:32;;;;;;;7.65;2.65;;;;;;;;;;5028693;28;20132;-86
2022/05/15 12:02:13;;;;;;;5.13;2.28;;;;;;;;;;5013886;28;20660;-86
2022/05/15 12:04:39;;;;;;;9.05;2.67;;;;;;;;;;5013990;28;20045;-85
2022/05/15 12:07:05;;;;;;;20.98;11.98;;;;;;;;;;5014530;28;20025;-91
2022/05/15 12:09:31;;;;;;;14.05;3.40;;;;;;;;;;5014542;28;20506;-84
2022/05/15 12:12:17;;;;;;;12.27;2.90;;;;;;;;;;5019650;28;20026;-83
2022/05/15 12:15:03;;;;;;;5.07;2.30;;;;;;;;;;5019924;28;20025;-89
2022/05/15 12:17:30;;;;;;;7.88;2.40;;;;;;;;;;5019469;28;20478;-91
2022/05/15 12:20:14;;;;;;;7.20;2.15;;;;;;;;;;5016263;28;20403;-89
2022/05/15 12:22:44;;;;;;;9.32;2.70;;;;;;;;;;5015057;28;20112;-88
2022/05/15 12:25:12;;;;;;;7.85;2.85;;;;;;;;;;5016434;28;20518;-84
2022/05/15 12:27:51;;;;;;;10.18;2.30;;;;;;;;;;5014435;28;20037;-85
2022/05/15 12:30:17;;;;;;;6.22;3.05;;;;;;;;;;5017170;28;20488;-86
2022/05/15 12:32:50;;;;;;;8.90;2.30;;;;;;;;;;5016770;28;20044;-88
2022/05/15 12:35:23;;;;;;;5.65;2.50;;;;;;;;;;5012700;28;20018;-86
2022/05/15 12:37:54;;;;;;;5.83;2.57;;;;;;;;;;5015324;28;20435;-82
2022/05/15 12:40:25;;;;;;;7.97;2.60;;;;;;;;;;5019181;28;20022;-86
2022/05/15 12:42:53;;;;;;;20.70;3.20;;;;;;;;;;5014710;28;20101;-84
2022/05/15 12:45:21;;;;;;;7.32;2.28;;;;;;;;;;5015098;28;20478;-85
2022/05/15 12:48:01;;;;;;;10.98;2.58;;;;;;;;;;5016424;28;20033;-89
2022/05/15 12:50:27;;;;;;;5.38;2.28;;;;;;;;;;5020467;28;20109;-82
2022/05/15 12:52:54;;;;;;;5.60;2.47;;;;;;;;;;5018276;28;20021;-85
2022/05/15 12:55:31;;;;;;;5.13;2.50;;;;;;;;;;5013635;28;20061;-83
2022/05/15 12:57:58;;;;;;;8.10;2.65;;;;;;;;;;5016569;28;20030;-85
2022/05/15 13:00:35;;;;;;;18.92;3.70;;;;;;;;;;5018508;28;20038;-84
2022/05/15 13:03:02;;;;;;;5.88;2.45;;;;;;;;;;5021234;28;20431;-81
2022/05/15 13:05:39;;;;;;;39.75;4.70;;;;;;;;;;5019089;28;20036;-86
2022/05/15 13:08:07;;;;;;;18.17;2.80;;;;;;;;;;5013641;28;20097;-84
2022/05/15 13:10:35;;;;;;;32.50;4.35;;;;;;;;;;5016890;28;20437;-88
2022/05/15 13:13:12;;;;;;;7.60;2.22;;;;;;;;;;5015717;28;20038;-86
2022/05/15 13:15:39;;;;;;;4.30;2.08;;;;;;;;;;5028005;28;20053;-87
2022/05/15 13:18:08;;;;;;;7.97;2.10;;;;;;;;;;5019601;28;20034;-87
2022/05/15 13:20:37;;;;;;;12.65;2.60;;;;;;;;;;5015488;28;20422;-82
2022/05/15 13:23:03;;;;;;;5.53;2.00;;;;;;;;;;5015640;28;20026;-92
2022/05/15 13:25:44;;;;;;;10.32;2.60;;;;;;;;;;5021931;28;20025;-83
2022/05/15 13:28:10;;;;;;;15.30;3.75;;;;;;;;;;5019633;28;20022;-88
2022/05/15 13:30:37;;;;;;;4.80;2.20;;;;;;;;;;5010693;28;20506;-83
2022/05/15 13:33:05;;;;;;;6.75;2.38;;;;;;;;;;5017142;28;20100;-85
2022/05/15 13:35:36;;;;;;;3.85;2.17;;;;;;;;;;5015683;28;20029;-82
2022/05/15 13:38:16;;;;;;;8.63;2.50;;;;;;;;;;5012707;28;20396;-80
2022/05/15 13:43:36;;;;;;;3.40;2.10;;;;;;;;;;5018089;28;20159;-85
2022/05/15 13:46:05;;;;;;;8.55;2.55;;;;;;;;;;5017413;28;20033;-85
2022/05/15 13:48:51;;;;;;;7.38;2.35;;;;;;;;;;5017520;28;20041;-85
2022/05/15 13:51:36;;;;;;;4.68;2.25;;;;;;;;;;5019356;28;20156;-83
2022/05/15 13:54:17;;;;;;;7.05;2.53;;;;;;;;;;5015378;28;20466;-91
2022/05/15 13:56:45;;;;;;;5.38;2.40;;;;;;;;;;5011855;28;20060;-86
2022/05/15 13:59:50;;;;;;;12.75;2.60;;;;;;;;;;5015916;28;20025;-84
2022/05/15 14:02:20;;;;;;;6.75;2.40;;;;;;;;;;4983763;28;20389;-89
2022/05/15 14:04:59;;;;;;;4.78;2.45;;;;;;;;;;4976745;28;20022;-87
2022/05/15 14:07:25;;;;;;;5.10;2.05;;;;;;;;;;4989744;28;20043;-84
2022/05/15 14:09:52;;;;;;;9.18;2.50;;;;;;;;;;4983531;28;20061;-84
2022/05/15 14:12:19;;;;;;;7.63;2.30;;;;;;;;;;4986200;28;20097;-88
2022/05/15 14:14:51;;;;;;;4.55;2.20;;;;;;;;;;4985199;28;20034;-82
2022/05/15 14:17:20;;;;;;;13.82;3.00;;;;;;;;;;4984068;28;20154;-90
2022/05/15 14:19:47;;;;;;;5.18;2.28;;;;;;;;;;4987654;28;20035;-88
2022/05/15 14:22:13;;;;;;;8.05;2.33;;;;;;;;;;4983006;28;20081;-77
2022/05/15 14:24:40;;;;;;;5.00;2.45;;;;;;;;;;4985051;28;20026;-85
2022/05/15 14:27:06;;;;;;;6.75;2.42;;;;;;;;;;4988299;28;20034;-82
2022/05/15 14:29:32;;;;;;;5.80;2.00;;;;;;;;;;4990565;28;20145;-90
2022/05/15 14:32:03;;;;;;;11.55;3.05;;;;;;;;;;4989261;28;20102;-86
2022/05/15 14:34:29;;;;;;;11.48;2.53;;;;;;;;;;5018139;28;20026;-91
2022/05/15 14:36:55;;;;;;;3.38;2.20;;;;;;;;;;5023268;28;20390;-82
2022/05/15 14:39:21;;;;;;;4.57;2.20;;;;;;;;;;5013591;28;20120;-86
2022/05/15 14:41:47;;;;;;;4.63;2.20;;;;;;;;;;5028964;28;20425;-84
2022/05/15 14:44:13;;;;;;;5.38;2.40;;;;;;;;;;5018704;28;20063;-92
2022/05/15 14:46:42;;;;;;;8.90;2.40;;;;;;;;;;5019548;28;20029;-89
2022/05/15 14:49:10;;;;;;;7.05;2.33;;;;;;;;;;5016290;28;20022;-81
2022/05/15 14:51:38;;;;;;;4.03;1.80;;;;;;;;;;5031677;28;20360;-84
2022/05/15 14:54:04;;;;;;;11.90;9.48;;;;;;;;;;5016527;28;20064;-84
2022/05/15 14:56:32;;;;;;;6.20;2.70;;;;;;;;;;5026248;28;20125;-81
2022/05/15 14:59:06;;;;;;;5.97;2.30;;;;;;;;;;5015252;28;20048;-81
2022/05/15 15:01:34;;;;;;;15.05;2.70;;;;;;;;;;5018157;28;20030;-89
2022/05/15 15:04:00;;;;;;;6.50;2.50;;;;;;;;;;5021616;28;20052;-83
2022/05/15 15:06:27;;;;;;;8.25;2.53;;;;;;;;;;5022000;28;20059;-85
2022/05/15 15:08:53;;;;;;;5.63;2.42;;;;;;;;;;5014301;28;20034;-86
2022/05/15 15:11:28;;;;;;;5.95;2.22;;;;;;;;;;5017046;28;20022;-80
2022/05/15 15:13:56;;;;;;;4.85;2.35;;;;;;;;;;5020296;28;20026;-87